createdAt,value
2023-05-08T06:21:34.608Z,17.50
2023-05-08T06:26:30.664Z,34.50
2023-05-08T06:28:58.910Z,41.80
2023-05-08T06:31:27.467Z,28.80
2023-05-08T06:33:55.653Z,9.00
2023-05-08T06:36:24.161Z,6.40
2023-05-08T06:42:12.891Z,9.80
2023-05-08T06:44:41.299Z,9.50
2023-05-08T06:47:09.349Z,6.60
2023-05-08T06:49:37.584Z,6.80
2023-05-08T06:52:05.643Z,7.10
2023-05-08T06:54:33.808Z,6.60
2023-05-08T06:57:02.197Z,6.20
2023-05-08T06:59:30.353Z,4.60
2023-05-08T07:01:59.328Z,4.40
2023-05-08T07:04:29.557Z,6.60
2023-05-08T07:06:59.128Z,6.70
2023-05-08T07:09:27.244Z,8.60
2023-05-08T07:11:55.686Z,7.00
2023-05-08T07:14:23.930Z,4.60
2023-05-08T07:16:52.026Z,4.80
2023-05-08T07:19:22.363Z,5.90
2023-05-08T07:21:51.169Z,4.80
2023-05-08T07:24:19.288Z,5.10
2023-05-08T07:26:47.340Z,5.50
2023-05-08T07:29:15.459Z,6.50
2023-05-08T07:31:45.869Z,4.70
2023-05-08T07:34:14.308Z,5.10
2023-05-08T07:36:42.492Z,4.40
2023-05-08T07:39:10.991Z,3.80
2023-05-08T07:41:41.200Z,4.70
2023-05-08T07:44:09.570Z,4.90
2023-05-08T07:46:38.186Z,3.70
2023-05-08T07:49:06.469Z,3.30
2023-05-08T07:51:34.533Z,4.30
2023-05-08T07:54:04.787Z,5.80
2023-05-08T07:56:33.068Z,5.90
2023-05-08T07:59:01.762Z,5.40
2023-05-08T08:01:29.758Z,5.00
2023-05-08T08:03:57.851Z,4.90
2023-05-08T08:06:26.098Z,5.20
2023-05-08T08:08:54.255Z,4.80
2023-05-08T08:11:22.770Z,4.90
2023-05-08T08:13:50.818Z,5.50
2023-05-08T08:27:28.906Z,5.10
2023-05-08T08:30:12.204Z,4.70
2023-05-08T08:32:46.718Z,5.80
2023-05-08T08:37:44.526Z,5.70
2023-05-08T08:40:12.996Z,5.70
2023-05-08T08:42:41.950Z,9.10
2023-05-08T08:45:11.387Z,9.90
2023-05-08T08:47:41.847Z,7.60
2023-05-08T08:50:13.640Z,6.80
2023-05-08T08:53:14.689Z,10.10
2023-05-08T08:55:46.491Z,7.80
2023-05-08T08:58:26.811Z,8.30
2023-05-08T09:00:56.350Z,7.90
2023-05-08T09:03:24.915Z,8.20
2023-05-08T09:05:54.773Z,9.00
2023-05-08T09:08:23.690Z,9.30
2023-05-08T09:10:54.133Z,7.90
2023-05-08T09:13:22.982Z,9.70
2023-05-08T09:15:51.497Z,8.30
2023-05-08T09:18:19.680Z,9.50
2023-05-08T09:20:49.560Z,12.10
2023-05-08T09:23:18.468Z,8.80
2023-05-08T09:25:48.896Z,10.80
2023-05-08T09:28:18.316Z,8.50
2023-05-08T09:30:54.978Z,6.80
2023-05-08T09:33:28.057Z,8.00
2023-05-08T09:35:57.504Z,8.50
2023-05-08T09:38:40.806Z,7.30
2023-05-08T09:41:17.063Z,8.60
2023-05-08T09:44:01.462Z,8.20
2023-05-08T09:46:30.063Z,8.50
2023-05-08T09:51:29.753Z,10.40
2023-05-08T09:53:59.707Z,8.20
2023-05-08T09:56:39.583Z,7.70
2023-05-08T09:59:28.374Z,7.10
2023-05-08T10:05:23.034Z,8.50
2023-05-08T10:07:51.612Z,11.40
2023-05-08T10:14:51.330Z,5.80
